createdAt,value
2023-03-05T00:01:14.511Z,101029.28
2023-03-05T00:03:41.998Z,101030.78
2023-03-05T00:06:09.657Z,101029.63
2023-03-05T00:08:37.470Z,101026.72
2023-03-05T00:11:10.475Z,101022.16
2023-03-05T00:13:38.624Z,101029.38
2023-03-05T00:16:08.340Z,101027.47
2023-03-05T00:18:36.295Z,101020.84
2023-03-05T00:21:04.446Z,101030.34
2023-03-05T00:23:32.401Z,101023.50
2023-03-05T00:26:03.731Z,101027.56
2023-03-05T00:28:31.013Z,101019.38
2023-03-05T00:31:01.153Z,101021.59
2023-03-05T00:33:28.952Z,101012.16
2023-03-05T00:35:57.382Z,101017.31
2023-03-05T00:38:25.098Z,101020.44
2023-03-05T00:40:52.850Z,101029.28
2023-03-05T00:43:20.648Z,101028.03
2023-03-05T00:45:48.007Z,101025.81
2023-03-05T00:48:15.462Z,101029.19
2023-03-05T00:50:42.777Z,101021.50
2023-03-05T00:53:10.132Z,101026.66
2023-03-05T00:55:37.869Z,101023.09
2023-03-05T00:58:05.151Z,101024.22
2023-03-05T01:00:32.534Z,101022.03
2023-03-05T01:02:59.934Z,101016.44
2023-03-05T01:05:27.416Z,101014.88
2023-03-05T01:07:56.075Z,101016.72
2023-03-05T01:10:26.634Z,101017.06
2023-03-05T01:12:55.085Z,101017.09
2023-03-05T01:15:23.768Z,101014.81
2023-03-05T01:17:51.490Z,101005.38
2023-03-05T01:20:21.382Z,101007.13
2023-03-05T01:22:49.247Z,101006.00
2023-03-05T01:25:18.284Z,101015.78
2023-03-05T01:27:46.075Z,101004.53
2023-03-05T01:30:15.070Z,101003.34
2023-03-05T01:32:43.071Z,101006.31
2023-03-05T01:35:15.534Z,101000.00
2023-03-05T01:37:43.246Z,100997.19
2023-03-05T01:40:12.615Z,100996.59
2023-03-05T01:42:39.918Z,100994.63
2023-03-05T01:45:17.569Z,100998.81
2023-03-05T01:47:45.470Z,101005.13
2023-03-05T01:50:22.738Z,100997.13
2023-03-05T01:53:11.479Z,100990.16
2023-03-05T01:55:39.401Z,100982.88
2023-03-05T01:58:11.314Z,100983.59
2023-03-05T02:00:41.531Z,100978.72
2023-03-05T02:03:11.306Z,100979.16
2023-03-05T02:05:43.256Z,100973.22
2023-03-05T02:08:12.940Z,100982.56
2023-03-05T02:10:44.164Z,100972.41
2023-03-05T02:13:18.933Z,100979.75
2023-03-05T02:15:47.741Z,100977.00
2023-03-05T02:18:16.837Z,100982.50
2023-03-05T02:20:48.656Z,100980.56
2023-03-05T02:23:18.370Z,100988.22
2023-03-05T02:25:45.771Z,100988.88
2023-03-05T02:28:26.623Z,100978.78
2023-03-05T02:30:54.332Z,100986.53
2023-03-05T02:33:21.705Z,100991.03
2023-03-05T02:35:50.098Z,100977.41
2023-03-05T02:38:19.833Z,100978.31
2023-03-05T02:40:47.313Z,100979.75
2023-03-05T02:43:16.955Z,100973.88
2023-03-05T02:45:44.525Z,100975.53
2023-03-05T02:48:11.960Z,100976.53
2023-03-05T02:50:40.386Z,100976.06
2023-03-05T02:53:07.994Z,100965.91
2023-03-05T02:55:35.756Z,100972.63
2023-03-05T02:58:03.889Z,100967.03
2023-03-05T03:00:31.395Z,100968.00
2023-03-05T03:02:58.812Z,100962.41
2023-03-05T03:05:26.211Z,100961.06
2023-03-05T03:07:53.983Z,100957.47
2023-03-05T03:10:21.658Z,100946.06
2023-03-05T03:12:48.951Z,100940.13
2023-03-05T03:15:17.468Z,100937.00
2023-03-05T03:17:45.355Z,100934.59
2023-03-05T03:20:16.500Z,100941.44
2023-03-05T03:22:46.310Z,100935.63
2023-03-05T03:25:21.318Z,100937.84
2023-03-05T03:27:52.416Z,100940.56
2023-03-05T03:30:20.181Z,100940.44
2023-03-05T03:32:47.721Z,100946.25
2023-03-05T03:35:15.141Z,100941.34
2023-03-05T03:37:42.946Z,100944.84
2023-03-05T03:40:11.963Z,100943.31
2023-03-05T03:42:39.309Z,100951.25
2023-03-05T03:45:07.309Z,100957.28
2023-03-05T03:47:35.008Z,100954.19
2023-03-05T03:50:03.019Z,100951.31
2023-03-05T03:52:30.347Z,100955.84
2023-03-05T03:55:01.599Z,100946.34
2023-03-05T03:57:33.596Z,100954.63
2023-03-05T04:00:01.257Z,100955.44
2023-03-05T04:02:28.527Z,100952.59
2023-03-05T04:04:56.233Z,100953.50
2023-03-05T04:07:23.626Z,100955.97
2023-03-05T04:09:51.986Z,100953.06
2023-03-05T04:12:19.394Z,100955.91
2023-03-05T04:14:48.344Z,100955.00
2023-03-05T04:17:16.580Z,100950.72
2023-03-05T04:19:44.948Z,100953.94
2023-03-05T04:22:13.993Z,100954.34
2023-03-05T04:24:41.939Z,100945.41
2023-03-05T04:27:10.059Z,100933.00
2023-03-05T04:29:38.420Z,100932.78
2023-03-05T04:32:06.302Z,100932.25
2023-03-05T04:34:34.057Z,100920.94
2023-03-05T04:37:01.483Z,100927.19
2023-03-05T04:39:28.808Z,100925.19
2023-03-05T04:41:56.339Z,100920.28
2023-03-05T04:44:25.940Z,100915.44
2023-03-05T04:46:53.401Z,100919.06
2023-03-05T04:49:20.628Z,100915.38
2023-03-05T04:51:48.590Z,100915.94
2023-03-05T04:54:16.366Z,100920.00
2023-03-05T04:56:43.777Z,100913.84
2023-03-05T04:59:11.302Z,100914.88
2023-03-05T05:01:39.244Z,100911.69
2023-03-05T05:04:06.771Z,100913.44
2023-03-05T05:06:34.585Z,100914.44
2023-03-05T05:09:01.861Z,100917.22
2023-03-05T05:11:29.308Z,100916.34
2023-03-05T05:13:56.618Z,100923.75
2023-03-05T05:16:24.522Z,100925.78
2023-03-05T05:18:52.281Z,100924.28
2023-03-05T05:21:20.378Z,100926.22
2023-03-05T05:23:47.679Z,100918.75
2023-03-05T05:26:15.353Z,100937.16
2023-03-05T05:28:43.964Z,100933.06
2023-03-05T05:31:14.067Z,100922.63
2023-03-05T05:33:41.778Z,100923.56
2023-03-05T05:36:12.967Z,100926.25
2023-03-05T05:38:40.821Z,100927.34
2023-03-05T05:41:11.113Z,100926.78
2023-03-05T05:43:39.118Z,100934.53
2023-03-05T05:46:09.624Z,100935.03
2023-03-05T05:48:37.074Z,100933.41
2023-03-05T05:51:09.334Z,100933.66
2023-03-05T05:53:37.266Z,100940.44
2023-03-05T05:56:05.994Z,100934.66
2023-03-05T05:58:33.963Z,100940.47
2023-03-05T06:01:01.998Z,100938.41
2023-03-05T06:03:29.339Z,100949.47
2023-03-05T06:05:56.832Z,100947.63
2023-03-05T06:08:24.090Z,100948.75
2023-03-05T06:10:55.522Z,100947.06
2023-03-05T06:13:23.776Z,100949.63
2023-03-05T06:15:58.490Z,100953.44
2023-03-05T06:18:25.823Z,100958.25
2023-03-05T06:21:02.189Z,100960.94
2023-03-05T06:23:29.660Z,100958.94
2023-03-05T06:26:02.952Z,100959.66
2023-03-05T06:28:30.710Z,100958.47
2023-03-05T06:31:05.309Z,100957.72
2023-03-05T06:33:33.378Z,100952.44
2023-03-05T06:36:04.832Z,100951.25
2023-03-05T06:38:33.149Z,100950.75
2023-03-05T06:41:02.063Z,100951.44
2023-03-05T06:43:29.341Z,100953.28
2023-03-05T06:46:13.901Z,100948.56
2023-03-05T06:48:43.264Z,100956.69
2023-03-05T06:51:18.970Z,100948.00
2023-03-05T06:53:49.280Z,100957.41
2023-03-05T06:56:18.245Z,100959.28
2023-03-05T06:58:47.910Z,100962.25
2023-03-05T07:01:16.382Z,100956.09
2023-03-05T07:03:43.957Z,100967.78
2023-03-05T07:06:14.035Z,100958.91
2023-03-05T07:08:42.229Z,100957.31
2023-03-05T07:11:15.469Z,100959.53
2023-03-05T07:13:43.513Z,100952.44
2023-03-05T07:16:15.027Z,100957.88
2023-03-05T07:18:42.855Z,100947.75
2023-03-05T07:21:15.001Z,100954.00
2023-03-05T07:23:42.411Z,100947.09
2023-03-05T07:26:11.290Z,100946.16
2023-03-05T07:28:38.956Z,100944.66
2023-03-05T07:31:11.738Z,100938.50
2023-03-05T07:33:39.160Z,100958.38
2023-03-05T07:36:10.371Z,100949.97
2023-03-05T07:38:38.265Z,100949.34
2023-03-05T07:41:11.993Z,100950.38
2023-03-05T07:43:39.849Z,100946.22
2023-03-05T07:46:09.036Z,100939.38
2023-03-05T07:48:36.797Z,100942.91
2023-03-05T07:51:07.096Z,100945.56
2023-03-05T07:53:35.604Z,100952.47
2023-03-05T07:56:03.661Z,100957.44
2023-03-05T07:58:31.051Z,100964.94
2023-03-05T08:00:58.856Z,100951.13
2023-03-05T08:03:26.216Z,100950.97
2023-03-05T08:05:53.489Z,100958.06
2023-03-05T08:08:20.862Z,100945.19
2023-03-05T08:10:48.573Z,100946.75
2023-03-05T08:13:16.889Z,100952.41
2023-03-05T08:15:46.078Z,100953.56
2023-03-05T08:18:13.863Z,100953.75
2023-03-05T08:20:41.670Z,100950.47
2023-03-05T08:23:09.002Z,100948.09
2023-03-05T08:25:37.867Z,100945.91
2023-03-05T08:28:05.300Z,100944.75
2023-03-05T08:30:32.684Z,100955.88
2023-03-05T08:33:00.035Z,100952.69
2023-03-05T08:35:27.340Z,100952.69
2023-03-05T08:37:54.609Z,100948.63
2023-03-05T08:40:22.266Z,100940.22
2023-03-05T08:42:51.947Z,100939.09
2023-03-05T08:45:19.712Z,100939.88
2023-03-05T08:47:47.076Z,100938.41
2023-03-05T08:50:14.376Z,100934.16
2023-03-05T08:52:41.602Z,100931.22
2023-03-05T08:55:09.277Z,100930.34
2023-03-05T08:57:36.913Z,100934.34
2023-03-05T09:00:04.798Z,100939.22
2023-03-05T09:02:32.277Z,100934.81
2023-03-05T09:04:59.545Z,100935.84
2023-03-05T09:07:27.178Z,100934.84
2023-03-05T09:09:54.879Z,100925.91
2023-03-05T09:12:22.331Z,100930.31
2023-03-05T09:14:49.816Z,100925.09
2023-03-05T09:17:17.149Z,100920.25
2023-03-05T09:19:44.467Z,100920.56
2023-03-05T09:22:11.790Z,100911.97
2023-03-05T09:24:39.614Z,100925.81
2023-03-05T09:27:07.003Z,100917.59
2023-03-05T09:29:34.292Z,100905.88
2023-03-05T09:32:01.655Z,100899.25
2023-03-05T09:34:29.016Z,100903.38
2023-03-05T09:36:56.381Z,100893.63
2023-03-05T09:39:23.665Z,100888.44
2023-03-05T09:42:18.140Z,100894.91
2023-03-05T09:45:28.760Z,100895.88
2023-03-05T09:48:05.689Z,100889.28
2023-03-05T09:50:38.973Z,100887.31
2023-03-05T09:53:40.223Z,100881.66
2023-03-05T09:56:14.162Z,100875.09
2023-03-05T09:58:46.172Z,100860.69
2023-03-05T10:01:17.546Z,100864.34
2023-03-05T10:03:57.422Z,100861.50
2023-03-05T10:06:26.738Z,100860.22
2023-03-05T10:08:58.979Z,100857.03
2023-03-05T10:11:55.020Z,100857.59
2023-03-05T10:14:27.857Z,100847.63
2023-03-05T10:17:19.777Z,100857.44
2023-03-05T10:19:59.071Z,100850.13
2023-03-05T10:22:31.943Z,100847.88
2023-03-05T10:25:36.369Z,100847.97
2023-03-05T10:28:19.083Z,100847.16
2023-03-05T10:31:04.882Z,100843.34
2023-03-05T10:33:54.594Z,100837.72
2023-03-05T10:36:50.809Z,100834.31
2023-03-05T10:39:47.336Z,100836.41
2023-03-05T10:42:54.051Z,100822.56
2023-03-05T10:45:26.619Z,100807.22
2023-03-05T10:47:59.461Z,100802.63
2023-03-05T10:50:33.517Z,100797.50
2023-03-05T10:53:14.351Z,100795.00
2023-03-05T10:55:42.368Z,100785.25
2023-03-05T10:58:15.033Z,100794.66
2023-03-05T11:01:06.721Z,100788.94
2023-03-05T11:04:00.585Z,100784.44
2023-03-05T11:06:45.772Z,100789.72
2023-03-05T11:09:22.791Z,100785.69
2023-03-05T11:12:13.615Z,100777.28
2023-03-05T11:15:04.930Z,100785.59
2023-03-05T11:17:39.645Z,100780.09
2023-03-05T11:20:28.881Z,100776.97
2023-03-05T11:23:18.289Z,100772.41
2023-03-05T11:25:54.126Z,100765.88
2023-03-05T11:28:37.172Z,100761.69
2023-03-05T11:31:16.240Z,100759.00
2023-03-05T11:34:02.083Z,100748.81
2023-03-05T11:36:41.818Z,100748.31
2023-03-05T11:39:18.226Z,100740.88
2023-03-05T11:42:00.046Z,100734.97
2023-03-05T11:44:34.907Z,100725.41
2023-03-05T11:47:14.064Z,100723.91
2023-03-05T11:49:45.566Z,100715.13
2023-03-05T11:52:21.201Z,100706.31
2023-03-05T11:54:56.865Z,100700.56
2023-03-05T11:57:25.914Z,100691.91
2023-03-05T11:59:56.321Z,100686.13
2023-03-05T12:02:27.265Z,100681.09
2023-03-05T12:04:56.029Z,100681.28
2023-03-05T12:07:34.634Z,100674.16
2023-03-05T12:10:02.648Z,100668.72
2023-03-05T12:12:32.182Z,100656.03
2023-03-05T12:15:17.379Z,100652.31
2023-03-05T12:18:11.413Z,100645.59
2023-03-05T12:21:02.706Z,100656.78
2023-03-05T12:23:44.705Z,100640.38
2023-03-05T12:26:12.145Z,100641.44
2023-03-05T12:28:43.008Z,100632.97
2023-03-05T12:31:11.506Z,100620.69
2023-03-05T12:33:41.790Z,100620.63
2023-03-05T12:36:21.254Z,100620.16
2023-03-05T12:38:52.892Z,100613.22
2023-03-05T12:41:24.936Z,100600.75
2023-03-05T12:44:10.647Z,100602.34
2023-03-05T12:46:43.857Z,100595.09
2023-03-05T12:49:22.884Z,100595.16
2023-03-05T12:51:53.082Z,100594.25
2023-03-05T12:54:32.882Z,100587.56
2023-03-05T12:57:04.418Z,100590.50
2023-03-05T12:59:45.233Z,100585.00
2023-03-05T13:02:23.913Z,100585.34
2023-03-05T13:04:53.435Z,100579.44
2023-03-05T13:07:20.691Z,100578.06
2023-03-05T13:10:06.557Z,100568.00
2023-03-05T13:12:36.393Z,100563.88
2023-03-05T13:15:06.595Z,100558.00
2023-03-05T13:17:38.293Z,100565.75
2023-03-05T13:20:23.817Z,100551.31
2023-03-05T13:23:04.163Z,100552.34
2023-03-05T13:25:32.344Z,100550.00
2023-03-05T13:28:16.822Z,100548.09
2023-03-05T13:30:57.127Z,100546.44
2023-03-05T13:33:33.446Z,100542.34
2023-03-05T13:36:01.469Z,100540.34
2023-03-05T13:38:39.094Z,100525.44
2023-03-05T13:41:16.008Z,100526.31
2023-03-05T13:43:49.448Z,100523.75
2023-03-05T13:46:42.036Z,100518.44
2023-03-05T13:49:24.403Z,100516.03
2023-03-05T13:51:57.790Z,100508.09
2023-03-05T13:54:27.417Z,100514.81
2023-03-05T13:56:58.950Z,100514.78
2023-03-05T13:59:30.826Z,100501.25
2023-03-05T14:02:00.989Z,100427.16
2023-03-05T14:04:31.065Z,100441.94
2023-03-05T14:07:39.277Z,100470.66
2023-03-05T14:10:34.406Z,100466.75
2023-03-05T14:13:06.127Z,100463.09
2023-03-05T14:15:35.343Z,100452.72
2023-03-05T14:18:17.033Z,100352.91
2023-03-05T14:21:04.092Z,100258.00
2023-03-05T14:23:37.516Z,100246.84
2023-03-05T14:26:28.609Z,100254.22
2023-03-05T14:29:00.277Z,100250.63
2023-03-05T14:31:30.797Z,100282.38
2023-03-05T14:34:07.224Z,100285.38
2023-03-05T14:36:35.716Z,100283.78
2023-03-05T14:39:05.036Z,100294.91
2023-03-05T14:41:41.529Z,100310.09
2023-03-05T14:44:17.512Z,100330.13
2023-03-05T14:46:49.957Z,100335.78
2023-03-05T14:49:17.717Z,100344.72
2023-03-05T14:51:46.454Z,100365.63
2023-03-05T14:54:26.247Z,100388.72
2023-03-05T14:56:54.050Z,100415.63
2023-03-05T14:59:21.839Z,100426.50
2023-03-05T15:01:50.859Z,100424.28
2023-03-05T15:04:20.962Z,100421.25
2023-03-05T15:06:51.166Z,100417.31
2023-03-05T15:09:20.422Z,100415.41
2023-03-05T15:11:48.263Z,100403.03
2023-03-05T15:14:16.527Z,100402.44
2023-03-05T15:16:45.837Z,100398.66
2023-03-05T15:19:13.711Z,100408.25
2023-03-05T15:21:41.891Z,100404.69
2023-03-05T15:24:11.284Z,100411.69
2023-03-05T15:26:39.265Z,100406.22
2023-03-05T15:29:07.121Z,100393.25
2023-03-05T15:31:38.646Z,100394.44
2023-03-05T15:34:06.470Z,100385.16
2023-03-05T15:36:33.938Z,100393.63
2023-03-05T15:39:01.973Z,100385.00
2023-03-05T15:41:30.066Z,100385.16
2023-03-05T15:43:57.728Z,100377.66
2023-03-05T15:46:25.184Z,100378.66
2023-03-05T15:48:52.421Z,100369.69
2023-03-05T15:51:20.441Z,100372.38
2023-03-05T15:53:48.510Z,100369.22
2023-03-05T15:56:19.757Z,100376.28
2023-03-05T15:58:50.686Z,100366.88
2023-03-05T16:01:23.381Z,100366.19
2023-03-05T16:03:51.851Z,100367.00
2023-03-05T16:06:23.316Z,100363.53
2023-03-05T16:08:55.150Z,100359.47
2023-03-05T16:11:22.978Z,100361.31
2023-03-05T16:13:50.559Z,100368.72
2023-03-05T16:16:19.183Z,100359.03
2023-03-05T16:18:48.012Z,100363.31
2023-03-05T16:21:15.887Z,100361.69
2023-03-05T16:23:43.196Z,100363.19
2023-03-05T16:26:10.626Z,100368.88
2023-03-05T16:28:38.055Z,100373.25
2023-03-05T16:31:05.639Z,100376.03
2023-03-05T16:33:33.249Z,100365.66
2023-03-05T16:36:21.086Z,100365.41
2023-03-05T16:38:51.044Z,100367.31
2023-03-05T16:41:21.961Z,100377.38
2023-03-05T16:43:53.322Z,100371.66
2023-03-05T16:46:20.802Z,100378.28
2023-03-05T16:48:49.120Z,100374.19
2023-03-05T16:51:16.393Z,100370.50
2023-03-05T16:53:44.070Z,100370.78
2023-03-05T16:56:12.138Z,100371.94
2023-03-05T16:58:40.724Z,100375.31
2023-03-05T17:01:16.316Z,100380.88
2023-03-05T17:03:44.949Z,100374.91
2023-03-05T17:06:18.729Z,100374.94
2023-03-05T17:08:47.238Z,100371.88
2023-03-05T17:11:16.040Z,100374.75
2023-03-05T17:13:43.442Z,100379.41
2023-03-05T17:16:14.230Z,100380.84
2023-03-05T17:18:42.018Z,100379.75
2023-03-05T17:21:10.530Z,100390.94
2023-03-05T17:23:38.760Z,100389.53
2023-03-05T17:26:12.606Z,100384.38
2023-03-05T17:28:40.463Z,100391.38
2023-03-05T17:31:09.003Z,100387.31
2023-03-05T17:33:37.808Z,100392.88
2023-03-05T17:36:06.011Z,100383.41
2023-03-05T17:38:33.686Z,100393.72
2023-03-05T17:41:01.477Z,100397.03
2023-03-05T17:43:28.926Z,100395.91
2023-03-05T17:46:01.883Z,100405.81
2023-03-05T17:48:29.837Z,100409.59
2023-03-05T17:50:58.711Z,100410.16
2023-03-05T17:53:26.844Z,100423.13
2023-03-05T17:55:54.080Z,100413.56
2023-03-05T17:58:21.760Z,100416.44
2023-03-05T18:00:49.556Z,100412.88
2023-03-05T18:03:16.919Z,100414.34
2023-03-05T18:05:44.709Z,100422.31
2023-03-05T18:08:12.120Z,100419.13
2023-03-05T18:10:39.516Z,100415.53
2023-03-05T18:13:07.223Z,100421.16
2023-03-05T18:15:35.967Z,100424.91
2023-03-05T18:18:04.137Z,100419.94
2023-03-05T18:20:35.917Z,100423.38
2023-03-05T18:23:05.890Z,100426.25
2023-03-05T18:25:33.756Z,100418.66
2023-03-05T18:28:06.297Z,100420.53
2023-03-05T18:30:34.642Z,100423.59
2023-03-05T18:33:02.266Z,100432.69
2023-03-05T18:35:31.243Z,100432.84
2023-03-05T18:37:58.969Z,100424.72
2023-03-05T18:40:29.923Z,100431.78
2023-03-05T18:43:00.209Z,100433.69
2023-03-05T18:45:28.814Z,100423.94
2023-03-05T18:47:57.309Z,100433.28
2023-03-05T18:50:26.512Z,100430.75
2023-03-05T18:52:54.212Z,100426.56
2023-03-05T18:55:24.903Z,100432.78
2023-03-05T18:57:52.751Z,100439.53
2023-03-05T19:00:24.960Z,100431.56
2023-03-05T19:02:52.819Z,100429.03
2023-03-05T19:05:20.998Z,100429.88
2023-03-05T19:07:48.853Z,100432.28
2023-03-05T19:10:17.633Z,100434.53
2023-03-05T19:13:25.381Z,100425.78
2023-03-05T19:15:53.983Z,100430.75
2023-03-05T19:19:23.773Z,100437.22
2023-03-05T19:21:58.568Z,100440.22
2023-03-05T19:24:29.337Z,100442.72
2023-03-05T19:27:00.942Z,100443.16
2023-03-05T19:29:32.991Z,100449.00
2023-03-05T19:32:00.694Z,100443.16
2023-03-05T19:34:28.690Z,100430.19
2023-03-05T19:36:56.378Z,100430.16
2023-03-05T19:39:24.271Z,100428.03
2023-03-05T19:41:52.212Z,100439.72
2023-03-05T19:44:19.636Z,100432.44
2023-03-05T19:46:48.557Z,100428.63
2023-03-05T19:49:18.225Z,100435.16
2023-03-05T19:51:46.853Z,100445.63
2023-03-05T19:54:15.870Z,100439.53
2023-03-05T19:56:44.766Z,100440.41
2023-03-05T19:59:17.107Z,100443.34
2023-03-05T20:01:45.741Z,100442.28
2023-03-05T20:04:17.214Z,100447.75
2023-03-05T20:06:45.971Z,100440.00
2023-03-05T20:09:14.913Z,100445.47
2023-03-05T20:11:42.550Z,100444.41
2023-03-05T20:14:13.018Z,100447.97
2023-03-05T20:16:41.354Z,100436.25
2023-03-05T20:19:10.822Z,100433.91
2023-03-05T20:21:41.955Z,100433.91
2023-03-05T20:24:14.311Z,100436.69
2023-03-05T20:26:43.297Z,100439.38
2023-03-05T20:29:11.954Z,100439.59
2023-03-05T20:31:40.957Z,100437.31
2023-03-05T20:34:14.825Z,100438.78
2023-03-05T20:36:42.262Z,100445.25
2023-03-05T20:39:10.555Z,100440.66
2023-03-05T20:41:39.609Z,100444.22
2023-03-05T20:44:08.833Z,100439.19
2023-03-05T20:47:33.113Z,100429.97
2023-03-05T20:50:04.563Z,100430.22
2023-03-05T20:52:32.094Z,100426.38
2023-03-05T20:54:59.985Z,100431.41
2023-03-05T20:57:27.742Z,100433.53
2023-03-05T20:59:55.053Z,100438.16
2023-03-05T21:02:22.837Z,100441.69
2023-03-05T21:04:50.171Z,100439.00
2023-03-05T21:07:17.442Z,100452.78
2023-03-05T21:09:45.343Z,100451.25
2023-03-05T21:12:13.637Z,100441.56
2023-03-05T21:14:41.369Z,100445.66
2023-03-05T21:17:08.926Z,100452.09
2023-03-05T21:19:37.962Z,100458.38
2023-03-05T21:22:05.649Z,100457.75
2023-03-05T21:25:21.090Z,100457.72
2023-03-05T21:27:49.596Z,100463.63
2023-03-05T21:30:18.776Z,100468.91
2023-03-05T21:32:46.632Z,100472.28
2023-03-05T21:35:20.780Z,100466.59
2023-03-05T21:37:49.107Z,100462.06
2023-03-05T21:40:18.760Z,100465.38
2023-03-05T21:42:47.158Z,100461.19
2023-03-05T21:45:18.160Z,100460.56
2023-03-05T21:47:46.107Z,100467.97
2023-03-05T21:50:14.903Z,100462.81
2023-03-05T21:52:42.926Z,100462.63
2023-03-05T21:55:15.986Z,100459.91
2023-03-05T21:57:43.962Z,100462.28
2023-03-05T22:00:13.872Z,100460.28
2023-03-05T22:02:41.917Z,100458.84
2023-03-05T22:05:13.281Z,100456.91
2023-03-05T22:07:40.961Z,100454.72
2023-03-05T22:10:15.824Z,100454.16
2023-03-05T22:13:11.752Z,100460.78
2023-03-05T22:15:49.917Z,100452.88
2023-03-05T22:18:20.794Z,100450.06
2023-03-05T22:20:48.825Z,100452.03
2023-03-05T22:23:17.473Z,100451.38
2023-03-05T22:25:45.594Z,100445.03
2023-03-05T22:28:13.523Z,100452.19
2023-03-05T22:30:44.491Z,100447.75
2023-03-05T22:33:12.567Z,100448.72
2023-03-05T22:35:41.091Z,100450.25
2023-03-05T22:38:09.742Z,100443.34
2023-03-05T22:40:41.457Z,100447.22
2023-03-05T22:43:08.872Z,100436.22
2023-03-05T22:45:36.367Z,100428.00
2023-03-05T22:48:04.057Z,100432.84
2023-03-05T22:50:31.615Z,100430.78
2023-03-05T22:52:59.822Z,100432.13
2023-03-05T22:55:27.157Z,100431.47
2023-03-05T22:57:54.521Z,100430.59
2023-03-05T23:00:23.914Z,100425.47
